KDEW

Details ICAO KDEW
Name DEER PARK
Region United States
Timezone America/Los_Angeles (UTC-8.0)
Plans Departing 2
Arriving 1
Stats Elevation 2,210 ft / 674 m (AMSL)
Location 47.966403° -117.427306°
Runways 2
Magnetic Variation 14.632° E
Sunrise 2017-12-17 15:35:48 UTC / 2017-12-17 07:35:48 Local
Sunset 2017-12-17 23:58:54 UTC / 2017-12-17 15:58:54 Local
Advertisement - Login to hide

Runways

ID Width Length Bearing (true) Bearing (mag) Surface Threshold Offset Overrun Length
04 60 ft / 18 m 3,194 ft / 973 m 61.21° 46.58° Asphalt 0 ft / 0 m 0 ft / 0 m
16 75 ft / 23 m 6,101 ft / 1,860 m 179.81° 165.18° Asphalt 0 ft / 0 m 0 ft / 0 m
22 60 ft / 18 m 3,194 ft / 973 m 241.22° 226.59° Asphalt 0 ft / 0 m 0 ft / 0 m
34 75 ft / 23 m 6,101 ft / 1,860 m 359.81° 345.18° Asphalt 0 ft / 0 m 0 ft / 0 m

Map

Weather


0- 5 10 15 20 25 30 35+ Temperature / ° C

Clouds and Precipitation
Forecast for 2017-12-17 18:00 UTC. Updated an hour ago

Ground ~20,000 ft ~40,000 ft Winds

METAR

KDEW 171353Z AUTO 00000KT 1SM -SN BR BKN011 OVC017 M03/M04 A3015 RMK AO2 SLP236 P0005 T10281039

TAF

Not found

Frequencies

Recorded 135.17 MHz ASOS
Approach 123.75 MHz SPOKANE APP/DEP
Unicom 123.00 MHz CTAF/UNICOM
Warning: Do not use this data for real-world aviation or navigation. No guarantee of current accuracy is given.